sensor_id;sensor_type;location;lat;lon;timestamp;P1;durP1;ratioP1;P2;durP2;ratioP2
85894;SDS011;76441;49.954;8.842;2024-02-26T00:01:24;3.95;;;2.50;;
85894;SDS011;76441;49.954;8.842;2024-02-26T00:03:50;4.25;;;2.30;;
85894;SDS011;76441;49.954;8.842;2024-02-26T00:06:15;3.45;;;2.08;;
85894;SDS011;76441;49.954;8.842;2024-02-26T00:08:40;3.40;;;2.25;;
85894;SDS011;76441;49.954;8.842;2024-02-26T00:11:05;3.10;;;2.40;;
85894;SDS011;76441;49.954;8.842;2024-02-26T00:13:31;4.22;;;3.08;;
85894;SDS011;76441;49.954;8.842;2024-02-26T00:15:56;4.65;;;2.50;;
85894;SDS011;76441;49.954;8.842;2024-02-26T00:18:22;3.83;;;2.80;;
85894;SDS011;76441;49.954;8.842;2024-02-26T00:20:47;3.40;;;2.30;;
85894;SDS011;76441;49.954;8.842;2024-02-26T00:23:14;5.55;;;2.50;;
85894;SDS011;76441;49.954;8.842;2024-02-26T00:25:40;4.45;;;2.58;;
85894;SDS011;76441;49.954;8.842;2024-02-26T00:28:07;4.10;;;2.80;;
85894;SDS011;76441;49.954;8.842;2024-02-26T00:30:33;4.07;;;3.33;;
85894;SDS011;76441;49.954;8.842;2024-02-26T00:32:58;4.73;;;2.50;;
85894;SDS011;76441;49.954;8.842;2024-02-26T00:35:23;4.78;;;2.95;;
85894;SDS011;76441;49.954;8.842;2024-02-26T00:37:48;3.88;;;2.72;;
85894;SDS011;76441;49.954;8.842;2024-02-26T00:40:14;4.63;;;3.10;;
85894;SDS011;76441;49.954;8.842;2024-02-26T00:42:39;4.13;;;2.78;;
85894;SDS011;76441;49.954;8.842;2024-02-26T00:45:10;2.90;;;2.40;;
85894;SDS011;76441;49.954;8.842;2024-02-26T00:47:35;3.20;;;2.33;;
85894;SDS011;76441;49.954;8.842;2024-02-26T00:50:01;3.33;;;2.20;;
85894;SDS011;76441;49.954;8.842;2024-02-26T00:52:26;2.88;;;2.30;;
85894;SDS011;76441;49.954;8.842;2024-02-26T00:54:52;4.50;;;2.30;;
85894;SDS011;76441;49.954;8.842;2024-02-26T00:57:17;3.27;;;2.20;;
85894;SDS011;76441;49.954;8.842;2024-02-26T00:59:42;3.97;;;2.67;;
85894;SDS011;76441;49.954;8.842;2024-02-26T01:02:07;4.57;;;2.65;;
85894;SDS011;76441;49.954;8.842;2024-02-26T01:04:33;3.88;;;2.83;;
85894;SDS011;76441;49.954;8.842;2024-02-26T01:06:59;3.40;;;2.38;;
85894;SDS011;76441;49.954;8.842;2024-02-26T01:09:24;3.80;;;2.72;;
85894;SDS011;76441;49.954;8.842;2024-02-26T01:11:49;5.53;;;2.70;;
85894;SDS011;76441;49.954;8.842;2024-02-26T01:14:15;2.83;;;2.10;;
85894;SDS011;76441;49.954;8.842;2024-02-26T01:16:40;6.85;;;2.70;;
85894;SDS011;76441;49.954;8.842;2024-02-26T01:19:06;4.03;;;2.65;;
85894;SDS011;76441;49.954;8.842;2024-02-26T01:21:31;4.47;;;2.33;;
85894;SDS011;76441;49.954;8.842;2024-02-26T01:23:57;3.58;;;2.65;;
85894;SDS011;76441;49.954;8.842;2024-02-26T01:26:22;3.35;;;2.55;;
85894;SDS011;76441;49.954;8.842;2024-02-26T01:28:48;4.45;;;2.63;;
85894;SDS011;76441;49.954;8.842;2024-02-26T01:31:13;4.75;;;2.90;;
85894;SDS011;76441;49.954;8.842;2024-02-26T01:33:39;5.28;;;3.20;;
85894;SDS011;76441;49.954;8.842;2024-02-26T01:36:04;5.00;;;3.45;;
85894;SDS011;76441;49.954;8.842;2024-02-26T01:38:29;4.57;;;3.03;;
85894;SDS011;76441;49.954;8.842;2024-02-26T01:40:55;4.05;;;2.35;;
85894;SDS011;76441;49.954;8.842;2024-02-26T01:43:20;7.22;;;2.97;;
85894;SDS011;76441;49.954;8.842;2024-02-26T01:45:45;5.15;;;3.53;;
85894;SDS011;76441;49.954;8.842;2024-02-26T01:48:11;4.30;;;2.67;;
85894;SDS011;76441;49.954;8.842;2024-02-26T01:50:37;4.72;;;2.40;;
85894;SDS011;76441;49.954;8.842;2024-02-26T01:53:03;5.20;;;2.75;;
85894;SDS011;76441;49.954;8.842;2024-02-26T01:55:29;5.05;;;3.03;;
85894;SDS011;76441;49.954;8.842;2024-02-26T01:57:55;6.15;;;2.88;;
85894;SDS011;76441;49.954;8.842;2024-02-26T02:00:20;4.72;;;2.70;;
85894;SDS011;76441;49.954;8.842;2024-02-26T02:02:46;4.10;;;3.20;;
85894;SDS011;76441;49.954;8.842;2024-02-26T02:05:14;4.93;;;2.78;;
85894;SDS011;76441;49.954;8.842;2024-02-26T02:07:42;4.18;;;2.97;;
85894;SDS011;76441;49.954;8.842;2024-02-26T02:10:08;4.63;;;2.63;;
85894;SDS011;76441;49.954;8.842;2024-02-26T02:12:34;3.92;;;2.80;;
85894;SDS011;76441;49.954;8.842;2024-02-26T02:15:01;5.40;;;3.28;;
85894;SDS011;76441;49.954;8.842;2024-02-26T02:17:27;4.43;;;3.05;;
85894;SDS011;76441;49.954;8.842;2024-02-26T02:19:53;5.82;;;3.08;;
85894;SDS011;76441;49.954;8.842;2024-02-26T02:22:18;4.03;;;2.78;;
85894;SDS011;76441;49.954;8.842;2024-02-26T02:24:44;5.80;;;2.85;;
85894;SDS011;76441;49.954;8.842;2024-02-26T02:27:10;4.72;;;3.05;;
85894;SDS011;76441;49.954;8.842;2024-02-26T02:29:35;4.68;;;3.33;;
85894;SDS011;76441;49.954;8.842;2024-02-26T02:32:01;3.75;;;2.67;;
85894;SDS011;76441;49.954;8.842;2024-02-26T02:34:28;4.15;;;2.75;;
85894;SDS011;76441;49.954;8.842;2024-02-26T02:36:54;4.68;;;2.92;;
85894;SDS011;76441;49.954;8.842;2024-02-26T02:39:20;5.28;;;2.92;;
85894;SDS011;76441;49.954;8.842;2024-02-26T02:41:46;3.90;;;2.95;;
85894;SDS011;76441;49.954;8.842;2024-02-26T02:44:12;4.53;;;2.95;;
85894;SDS011;76441;49.954;8.842;2024-02-26T02:46:38;6.22;;;2.90;;
85894;SDS011;76441;49.954;8.842;2024-02-26T02:49:03;6.13;;;2.90;;
85894;SDS011;76441;49.954;8.842;2024-02-26T02:51:29;4.75;;;2.88;;
85894;SDS011;76441;49.954;8.842;2024-02-26T02:53:54;4.10;;;3.03;;
85894;SDS011;76441;49.954;8.842;2024-02-26T02:56:19;4.47;;;2.93;;
85894;SDS011;76441;49.954;8.842;2024-02-26T02:58:44;4.97;;;2.92;;
85894;SDS011;76441;49.954;8.842;2024-02-26T03:01:10;4.20;;;2.93;;
85894;SDS011;76441;49.954;8.842;2024-02-26T03:03:35;4.13;;;2.95;;
85894;SDS011;76441;49.954;8.842;2024-02-26T03:06:02;4.63;;;3.20;;
85894;SDS011;76441;49.954;8.842;2024-02-26T03:08:27;6.10;;;4.07;;
85894;SDS011;76441;49.954;8.842;2024-02-26T03:10:53;6.28;;;4.18;;
85894;SDS011;76441;49.954;8.842;2024-02-26T03:13:19;5.68;;;3.08;;
85894;SDS011;76441;49.954;8.842;2024-02-26T03:15:44;4.75;;;3.03;;
85894;SDS011;76441;49.954;8.842;2024-02-26T03:18:09;4.20;;;2.83;;
85894;SDS011;76441;49.954;8.842;2024-02-26T03:20:35;4.70;;;3.20;;
85894;SDS011;76441;49.954;8.842;2024-02-26T03:23:00;6.07;;;3.72;;
85894;SDS011;76441;49.954;8.842;2024-02-26T03:25:25;4.75;;;3.15;;
85894;SDS011;76441;49.954;8.842;2024-02-26T03:27:51;5.43;;;3.30;;
85894;SDS011;76441;49.954;8.842;2024-02-26T03:30:16;4.53;;;2.90;;
85894;SDS011;76441;49.954;8.842;2024-02-26T03:32:41;6.45;;;3.33;;
85894;SDS011;76441;49.954;8.842;2024-02-26T03:35:07;5.35;;;2.60;;
85894;SDS011;76441;49.954;8.842;2024-02-26T03:37:33;4.13;;;2.80;;
85894;SDS011;76441;49.954;8.842;2024-02-26T03:39:58;4.68;;;2.75;;
85894;SDS011;76441;49.954;8.842;2024-02-26T03:42:24;6.43;;;2.80;;
85894;SDS011;76441;49.954;8.842;2024-02-26T03:44:49;4.07;;;2.95;;
85894;SDS011;76441;49.954;8.842;2024-02-26T03:47:15;4.03;;;2.72;;
85894;SDS011;76441;49.954;8.842;2024-02-26T03:49:41;5.65;;;3.10;;
85894;SDS011;76441;49.954;8.842;2024-02-26T03:52:06;4.45;;;2.92;;
85894;SDS011;76441;49.954;8.842;2024-02-26T03:54:32;5.85;;;3.03;;
85894;SDS011;76441;49.954;8.842;2024-02-26T03:56:57;3.38;;;2.50;;
85894;SDS011;76441;49.954;8.842;2024-02-26T03:59:22;3.78;;;2.75;;
85894;SDS011;76441;49.954;8.842;2024-02-26T04:01:49;4.95;;;3.00;;
85894;SDS011;76441;49.954;8.842;2024-02-26T04:04:15;4.72;;;2.97;;
85894;SDS011;76441;49.954;8.842;2024-02-26T04:06:43;7.97;;;2.90;;
85894;SDS011;76441;49.954;8.842;2024-02-26T04:09:10;6.90;;;3.30;;
85894;SDS011;76441;49.954;8.842;2024-02-26T04:11:35;5.25;;;2.88;;
85894;SDS011;76441;49.954;8.842;2024-02-26T04:14:02;4.03;;;2.40;;
85894;SDS011;76441;49.954;8.842;2024-02-26T04:16:28;6.35;;;3.17;;
85894;SDS011;76441;49.954;8.842;2024-02-26T04:18:53;6.30;;;3.67;;
85894;SDS011;76441;49.954;8.842;2024-02-26T04:21:19;4.60;;;2.72;;
85894;SDS011;76441;49.954;8.842;2024-02-26T04:23:45;5.28;;;3.08;;
85894;SDS011;76441;49.954;8.842;2024-02-26T04:26:10;4.25;;;2.90;;
85894;SDS011;76441;49.954;8.842;2024-02-26T04:28:35;5.60;;;3.03;;
85894;SDS011;76441;49.954;8.842;2024-02-26T04:31:01;4.65;;;3.40;;
85894;SDS011;76441;49.954;8.842;2024-02-26T04:33:26;6.32;;;3.75;;
85894;SDS011;76441;49.954;8.842;2024-02-26T04:35:52;5.68;;;3.67;;
85894;SDS011;76441;49.954;8.842;2024-02-26T04:38:18;5.40;;;3.13;;
85894;SDS011;76441;49.954;8.842;2024-02-26T04:40:44;5.15;;;3.42;;
85894;SDS011;76441;49.954;8.842;2024-02-26T04:43:09;5.27;;;3.27;;
85894;SDS011;76441;49.954;8.842;2024-02-26T04:45:34;4.80;;;3.73;;
85894;SDS011;76441;49.954;8.842;2024-02-26T04:48:00;7.00;;;3.67;;
85894;SDS011;76441;49.954;8.842;2024-02-26T04:50:25;6.18;;;3.85;;
85894;SDS011;76441;49.954;8.842;2024-02-26T04:52:50;7.10;;;3.90;;
85894;SDS011;76441;49.954;8.842;2024-02-26T04:55:15;5.88;;;3.95;;
85894;SDS011;76441;49.954;8.842;2024-02-26T04:57:41;7.45;;;4.35;;
85894;SDS011;76441;49.954;8.842;2024-02-26T05:00:06;6.72;;;4.40;;
85894;SDS011;76441;49.954;8.842;2024-02-26T05:02:33;6.47;;;4.25;;
85894;SDS011;76441;49.954;8.842;2024-02-26T05:05:02;7.47;;;4.15;;
85894;SDS011;76441;49.954;8.842;2024-02-26T05:07:29;7.45;;;4.47;;
85894;SDS011;76441;49.954;8.842;2024-02-26T05:09:54;6.77;;;4.70;;
85894;SDS011;76441;49.954;8.842;2024-02-26T05:12:20;6.60;;;4.15;;
85894;SDS011;76441;49.954;8.842;2024-02-26T05:14:46;7.57;;;4.10;;
85894;SDS011;76441;49.954;8.842;2024-02-26T05:17:11;7.03;;;4.25;;
85894;SDS011;76441;49.954;8.842;2024-02-26T05:19:37;6.82;;;4.40;;
85894;SDS011;76441;49.954;8.842;2024-02-26T05:22:02;6.43;;;3.80;;
85894;SDS011;76441;49.954;8.842;2024-02-26T05:24:27;5.82;;;3.72;;
85894;SDS011;76441;49.954;8.842;2024-02-26T05:26:53;7.47;;;4.32;;
85894;SDS011;76441;49.954;8.842;2024-02-26T05:29:19;7.00;;;4.63;;
85894;SDS011;76441;49.954;8.842;2024-02-26T05:31:45;6.22;;;4.28;;
85894;SDS011;76441;49.954;8.842;2024-02-26T05:34:10;9.75;;;5.13;;
85894;SDS011;76441;49.954;8.842;2024-02-26T05:36:35;5.82;;;4.18;;
85894;SDS011;76441;49.954;8.842;2024-02-26T05:39:01;7.28;;;4.50;;
85894;SDS011;76441;49.954;8.842;2024-02-26T05:41:26;7.82;;;4.50;;
85894;SDS011;76441;49.954;8.842;2024-02-26T05:43:54;9.75;;;4.88;;
85894;SDS011;76441;49.954;8.842;2024-02-26T05:46:20;6.22;;;4.18;;
85894;SDS011;76441;49.954;8.842;2024-02-26T05:48:47;7.43;;;4.55;;
85894;SDS011;76441;49.954;8.842;2024-02-26T05:51:14;6.85;;;4.75;;
85894;SDS011;76441;49.954;8.842;2024-02-26T05:53:40;7.82;;;4.32;;
85894;SDS011;76441;49.954;8.842;2024-02-26T05:56:06;6.75;;;4.38;;
85894;SDS011;76441;49.954;8.842;2024-02-26T05:58:32;6.95;;;4.68;;
85894;SDS011;76441;49.954;8.842;2024-02-26T06:00:57;7.60;;;4.82;;
85894;SDS011;76441;49.954;8.842;2024-02-26T06:03:22;8.23;;;4.18;;
85894;SDS011;76441;49.954;8.842;2024-02-26T06:05:48;10.03;;;5.33;;
85894;SDS011;76441;49.954;8.842;2024-02-26T06:08:13;9.33;;;5.37;;
85894;SDS011;76441;49.954;8.842;2024-02-26T06:10:39;7.72;;;5.03;;
85894;SDS011;76441;49.954;8.842;2024-02-26T06:13:07;10.00;;;5.10;;
85894;SDS011;76441;49.954;8.842;2024-02-26T06:15:32;10.15;;;4.70;;
85894;SDS011;76441;49.954;8.842;2024-02-26T06:17:58;7.17;;;4.73;;
85894;SDS011;76441;49.954;8.842;2024-02-26T06:20:23;6.17;;;4.57;;
85894;SDS011;76441;49.954;8.842;2024-02-26T06:22:48;7.28;;;3.92;;
85894;SDS011;76441;49.954;8.842;2024-02-26T06:25:14;5.95;;;4.88;;
85894;SDS011;76441;49.954;8.842;2024-02-26T06:27:39;7.47;;;5.03;;
85894;SDS011;76441;49.954;8.842;2024-02-26T06:30:05;10.93;;;5.80;;
85894;SDS011;76441;49.954;8.842;2024-02-26T06:32:30;8.85;;;5.10;;
85894;SDS011;76441;49.954;8.842;2024-02-26T06:34:56;9.57;;;5.87;;
85894;SDS011;76441;49.954;8.842;2024-02-26T06:37:21;9.35;;;5.45;;
85894;SDS011;76441;49.954;8.842;2024-02-26T06:39:47;9.43;;;5.88;;
85894;SDS011;76441;49.954;8.842;2024-02-26T06:42:15;12.40;;;5.40;;
85894;SDS011;76441;49.954;8.842;2024-02-26T06:44:41;11.15;;;5.70;;
85894;SDS011;76441;49.954;8.842;2024-02-26T06:47:06;10.00;;;5.00;;
85894;SDS011;76441;49.954;8.842;2024-02-26T06:49:31;9.38;;;6.30;;
85894;SDS011;76441;49.954;8.842;2024-02-26T06:51:57;7.40;;;4.83;;
85894;SDS011;76441;49.954;8.842;2024-02-26T06:54:22;10.63;;;5.68;;
85894;SDS011;76441;49.954;8.842;2024-02-26T06:56:47;8.30;;;5.47;;
85894;SDS011;76441;49.954;8.842;2024-02-26T06:59:13;8.85;;;5.30;;
85894;SDS011;76441;49.954;8.842;2024-02-26T07:01:41;8.57;;;5.63;;
85894;SDS011;76441;49.954;8.842;2024-02-26T07:04:07;11.93;;;5.78;;
85894;SDS011;76441;49.954;8.842;2024-02-26T07:06:32;9.20;;;5.55;;
85894;SDS011;76441;49.954;8.842;2024-02-26T07:08:58;10.55;;;6.15;;
85894;SDS011;76441;49.954;8.842;2024-02-26T07:11:23;11.38;;;6.40;;
85894;SDS011;76441;49.954;8.842;2024-02-26T07:13:48;12.17;;;5.57;;
85894;SDS011;76441;49.954;8.842;2024-02-26T07:16:14;7.18;;;4.72;;
85894;SDS011;76441;49.954;8.842;2024-02-26T07:18:40;9.50;;;5.75;;
85894;SDS011;76441;49.954;8.842;2024-02-26T07:21:05;8.90;;;5.55;;
85894;SDS011;76441;49.954;8.842;2024-02-26T07:23:30;9.63;;;5.90;;
85894;SDS011;76441;49.954;8.842;2024-02-26T07:25:56;10.57;;;6.15;;
85894;SDS011;76441;49.954;8.842;2024-02-26T07:28:21;11.00;;;5.78;;
85894;SDS011;76441;49.954;8.842;2024-02-26T07:30:47;10.95;;;6.22;;
85894;SDS011;76441;49.954;8.842;2024-02-26T07:33:12;16.52;;;7.10;;
85894;SDS011;76441;49.954;8.842;2024-02-26T07:35:37;9.93;;;6.20;;
85894;SDS011;76441;49.954;8.842;2024-02-26T07:38:04;10.00;;;6.25;;
85894;SDS011;76441;49.954;8.842;2024-02-26T07:40:29;12.32;;;6.72;;
85894;SDS011;76441;49.954;8.842;2024-02-26T07:42:54;12.47;;;6.73;;
85894;SDS011;76441;49.954;8.842;2024-02-26T07:45:20;10.75;;;6.63;;
85894;SDS011;76441;49.954;8.842;2024-02-26T07:47:46;13.18;;;7.93;;
85894;SDS011;76441;49.954;8.842;2024-02-26T07:50:12;11.32;;;6.63;;
85894;SDS011;76441;49.954;8.842;2024-02-26T07:52:37;9.23;;;6.18;;
85894;SDS011;76441;49.954;8.842;2024-02-26T07:55:03;9.45;;;6.22;;
85894;SDS011;76441;49.954;8.842;2024-02-26T07:57:29;8.45;;;6.10;;
85894;SDS011;76441;49.954;8.842;2024-02-26T07:59:54;8.87;;;5.70;;
85894;SDS011;76441;49.954;8.842;2024-02-26T08:02:20;12.23;;;6.20;;
85894;SDS011;76441;49.954;8.842;2024-02-26T08:04:47;12.13;;;7.05;;
85894;SDS011;76441;49.954;8.842;2024-02-26T08:07:12;10.90;;;6.18;;
85894;SDS011;76441;49.954;8.842;2024-02-26T08:09:37;13.57;;;6.75;;
85894;SDS011;76441;49.954;8.842;2024-02-26T08:12:02;10.60;;;6.27;;
85894;SDS011;76441;49.954;8.842;2024-02-26T08:14:28;14.43;;;7.18;;
85894;SDS011;76441;49.954;8.842;2024-02-26T08:16:53;11.10;;;6.60;;
85894;SDS011;76441;49.954;8.842;2024-02-26T08:19:18;8.53;;;5.57;;
85894;SDS011;76441;49.954;8.842;2024-02-26T08:21:44;13.27;;;5.97;;
85894;SDS011;76441;49.954;8.842;2024-02-26T08:24:09;10.30;;;6.60;;
85894;SDS011;76441;49.954;8.842;2024-02-26T08:26:34;11.40;;;6.45;;
85894;SDS011;76441;49.954;8.842;2024-02-26T08:29:00;25.83;;;15.18;;
85894;SDS011;76441;49.954;8.842;2024-02-26T08:31:25;14.13;;;6.87;;
85894;SDS011;76441;49.954;8.842;2024-02-26T08:33:52;12.13;;;6.32;;
85894;SDS011;76441;49.954;8.842;2024-02-26T08:36:17;12.05;;;6.75;;
85894;SDS011;76441;49.954;8.842;2024-02-26T08:38:42;10.53;;;6.43;;
85894;SDS011;76441;49.954;8.842;2024-02-26T08:41:07;11.43;;;6.47;;
85894;SDS011;76441;49.954;8.842;2024-02-26T08:43:33;11.25;;;6.95;;
85894;SDS011;76441;49.954;8.842;2024-02-26T08:45:58;11.35;;;6.72;;
85894;SDS011;76441;49.954;8.842;2024-02-26T08:48:24;13.40;;;6.20;;
85894;SDS011;76441;49.954;8.842;2024-02-26T08:50:49;11.52;;;6.85;;
85894;SDS011;76441;49.954;8.842;2024-02-26T08:53:14;11.50;;;6.23;;
85894;SDS011;76441;49.954;8.842;2024-02-26T08:55:40;16.80;;;9.05;;
85894;SDS011;76441;49.954;8.842;2024-02-26T08:58:05;11.17;;;6.97;;
85894;SDS011;76441;49.954;8.842;2024-02-26T09:00:30;12.43;;;6.93;;
85894;SDS011;76441;49.954;8.842;2024-02-26T09:02:56;10.90;;;7.05;;
85894;SDS011;76441;49.954;8.842;2024-02-26T09:05:21;11.30;;;6.47;;
85894;SDS011;76441;49.954;8.842;2024-02-26T09:07:47;11.60;;;6.90;;
85894;SDS011;76441;49.954;8.842;2024-02-26T09:10:12;15.63;;;8.13;;
85894;SDS011;76441;49.954;8.842;2024-02-26T09:12:37;12.20;;;7.88;;
85894;SDS011;76441;49.954;8.842;2024-02-26T09:15:05;12.43;;;7.05;;
85894;SDS011;76441;49.954;8.842;2024-02-26T09:17:31;9.07;;;6.10;;
85894;SDS011;76441;49.954;8.842;2024-02-26T09:19:56;13.60;;;6.72;;
85894;SDS011;76441;49.954;8.842;2024-02-26T09:22:22;9.85;;;6.35;;
85894;SDS011;76441;49.954;8.842;2024-02-26T09:24:47;12.32;;;6.53;;
85894;SDS011;76441;49.954;8.842;2024-02-26T09:27:14;12.52;;;6.80;;
85894;SDS011;76441;49.954;8.842;2024-02-26T09:29:40;10.63;;;6.25;;
85894;SDS011;76441;49.954;8.842;2024-02-26T09:32:05;12.63;;;7.13;;
85894;SDS011;76441;49.954;8.842;2024-02-26T09:34:30;12.50;;;7.57;;
85894;SDS011;76441;49.954;8.842;2024-02-26T09:36:56;12.50;;;6.80;;
85894;SDS011;76441;49.954;8.842;2024-02-26T09:39:21;10.40;;;6.68;;
85894;SDS011;76441;49.954;8.842;2024-02-26T09:41:47;13.35;;;7.60;;
85894;SDS011;76441;49.954;8.842;2024-02-26T09:44:18;15.32;;;7.72;;
85894;SDS011;76441;49.954;8.842;2024-02-26T09:46:49;13.43;;;7.38;;
85894;SDS011;76441;49.954;8.842;2024-02-26T09:49:18;11.93;;;8.27;;
85894;SDS011;76441;49.954;8.842;2024-02-26T09:51:44;14.65;;;8.93;;
85894;SDS011;76441;49.954;8.842;2024-02-26T09:54:10;13.95;;;8.27;;
85894;SDS011;76441;49.954;8.842;2024-02-26T09:56:38;16.30;;;9.30;;
85894;SDS011;76441;49.954;8.842;2024-02-26T10:01:35;13.65;;;7.85;;
85894;SDS011;76441;49.954;8.842;2024-02-26T10:04:03;10.80;;;6.57;;
85894;SDS011;76441;49.954;8.842;2024-02-26T10:06:29;15.27;;;7.93;;
85894;SDS011;76441;49.954;8.842;2024-02-26T10:08:55;12.55;;;7.32;;
85894;SDS011;76441;49.954;8.842;2024-02-26T10:11:23;11.27;;;7.50;;
85894;SDS011;76441;49.954;8.842;2024-02-26T10:13:49;20.10;;;8.80;;
85894;SDS011;76441;49.954;8.842;2024-02-26T10:16:14;15.88;;;8.88;;
85894;SDS011;76441;49.954;8.842;2024-02-26T10:18:45;12.23;;;7.53;;
85894;SDS011;76441;49.954;8.842;2024-02-26T10:21:11;15.43;;;8.10;;
85894;SDS011;76441;49.954;8.842;2024-02-26T10:23:36;13.02;;;7.40;;
85894;SDS011;76441;49.954;8.842;2024-02-26T10:26:01;13.97;;;8.03;;
85894;SDS011;76441;49.954;8.842;2024-02-26T10:28:27;14.43;;;7.00;;
85894;SDS011;76441;49.954;8.842;2024-02-26T10:30:54;12.07;;;7.45;;
85894;SDS011;76441;49.954;8.842;2024-02-26T10:33:20;11.40;;;7.55;;
85894;SDS011;76441;49.954;8.842;2024-02-26T10:35:46;12.80;;;7.65;;
85894;SDS011;76441;49.954;8.842;2024-02-26T10:38:11;13.05;;;7.93;;
85894;SDS011;76441;49.954;8.842;2024-02-26T10:40:37;12.88;;;7.60;;
85894;SDS011;76441;49.954;8.842;2024-02-26T10:43:02;13.20;;;7.60;;
85894;SDS011;76441;49.954;8.842;2024-02-26T10:45:27;14.55;;;8.15;;
85894;SDS011;76441;49.954;8.842;2024-02-26T10:47:53;12.32;;;6.75;;
85894;SDS011;76441;49.954;8.842;2024-02-26T10:50:18;12.05;;;7.05;;
85894;SDS011;76441;49.954;8.842;2024-02-26T10:52:44;11.77;;;7.65;;
85894;SDS011;76441;49.954;8.842;2024-02-26T10:55:16;12.65;;;7.13;;
85894;SDS011;76441;49.954;8.842;2024-02-26T10:57:45;12.98;;;7.15;;
85894;SDS011;76441;49.954;8.842;2024-02-26T11:00:15;11.55;;;7.63;;
85894;SDS011;76441;49.954;8.842;2024-02-26T11:02:41;9.63;;;6.45;;
85894;SDS011;76441;49.954;8.842;2024-02-26T11:05:07;9.90;;;6.07;;
85894;SDS011;76441;49.954;8.842;2024-02-26T11:07:34;11.30;;;6.78;;
85894;SDS011;76441;49.954;8.842;2024-02-26T11:10:02;12.63;;;7.28;;
85894;SDS011;76441;49.954;8.842;2024-02-26T11:12:29;12.88;;;7.20;;
85894;SDS011;76441;49.954;8.842;2024-02-26T11:14:56;11.05;;;6.85;;
85894;SDS011;76441;49.954;8.842;2024-02-26T11:17:23;11.95;;;7.38;;
85894;SDS011;76441;49.954;8.842;2024-02-26T11:19:51;10.88;;;7.35;;
85894;SDS011;76441;49.954;8.842;2024-02-26T11:22:20;11.32;;;6.32;;
85894;SDS011;76441;49.954;8.842;2024-02-26T11:24:47;9.88;;;5.90;;
85894;SDS011;76441;49.954;8.842;2024-02-26T11:27:13;10.90;;;6.63;;
85894;SDS011;76441;49.954;8.842;2024-02-26T11:29:44;10.70;;;6.97;;
85894;SDS011;76441;49.954;8.842;2024-02-26T11:32:14;13.15;;;6.55;;
85894;SDS011;76441;49.954;8.842;2024-02-26T11:34:40;10.38;;;5.80;;
85894;SDS011;76441;49.954;8.842;2024-02-26T11:37:13;10.88;;;5.85;;
85894;SDS011;76441;49.954;8.842;2024-02-26T11:39:40;8.40;;;5.38;;
85894;SDS011;76441;49.954;8.842;2024-02-26T11:42:06;12.63;;;6.45;;
85894;SDS011;76441;49.954;8.842;2024-02-26T11:44:33;8.98;;;5.93;;
85894;SDS011;76441;49.954;8.842;2024-02-26T11:46:59;10.45;;;5.90;;
85894;SDS011;76441;49.954;8.842;2024-02-26T11:49:35;11.32;;;6.53;;
85894;SDS011;76441;49.954;8.842;2024-02-26T11:52:02;11.93;;;7.03;;
85894;SDS011;76441;49.954;8.842;2024-02-26T11:57:03;11.65;;;6.82;;
85894;SDS011;76441;49.954;8.842;2024-02-26T11:59:38;9.80;;;6.88;;
85894;SDS011;76441;49.954;8.842;2024-02-26T12:02:03;10.52;;;6.68;;
85894;SDS011;76441;49.954;8.842;2024-02-26T12:04:29;9.57;;;5.85;;
85894;SDS011;76441;49.954;8.842;2024-02-26T12:06:56;10.07;;;6.45;;
85894;SDS011;76441;49.954;8.842;2024-02-26T12:09:39;10.75;;;5.93;;
85894;SDS011;76441;49.954;8.842;2024-02-26T12:12:06;10.32;;;6.25;;
85894;SDS011;76441;49.954;8.842;2024-02-26T12:14:34;10.45;;;6.22;;
85894;SDS011;76441;49.954;8.842;2024-02-26T12:17:03;9.73;;;6.07;;
85894;SDS011;76441;49.954;8.842;2024-02-26T12:19:32;8.48;;;5.80;;
85894;SDS011;76441;49.954;8.842;2024-02-26T12:21:58;9.68;;;6.50;;
85894;SDS011;76441;49.954;8.842;2024-02-26T12:24:23;9.93;;;6.18;;
85894;SDS011;76441;49.954;8.842;2024-02-26T12:26:49;9.82;;;6.63;;
85894;SDS011;76441;49.954;8.842;2024-02-26T12:29:14;10.43;;;6.95;;
85894;SDS011;76441;49.954;8.842;2024-02-26T12:31:40;11.63;;;6.53;;
85894;SDS011;76441;49.954;8.842;2024-02-26T12:34:06;10.52;;;6.10;;
85894;SDS011;76441;49.954;8.842;2024-02-26T12:36:33;10.63;;;6.30;;
85894;SDS011;76441;49.954;8.842;2024-02-26T12:38:59;9.93;;;6.20;;
85894;SDS011;76441;49.954;8.842;2024-02-26T12:41:27;10.30;;;6.68;;
85894;SDS011;76441;49.954;8.842;2024-02-26T12:43:53;9.45;;;5.90;;
85894;SDS011;76441;49.954;8.842;2024-02-26T12:46:18;10.68;;;6.70;;
85894;SDS011;76441;49.954;8.842;2024-02-26T12:48:44;9.43;;;6.07;;
85894;SDS011;76441;49.954;8.842;2024-02-26T12:51:10;15.05;;;8.50;;
85894;SDS011;76441;49.954;8.842;2024-02-26T12:53:37;10.95;;;6.88;;
85894;SDS011;76441;49.954;8.842;2024-02-26T12:56:04;10.52;;;6.38;;
85894;SDS011;76441;49.954;8.842;2024-02-26T12:58:30;9.85;;;6.03;;
85894;SDS011;76441;49.954;8.842;2024-02-26T13:00:57;12.95;;;6.18;;
85894;SDS011;76441;49.954;8.842;2024-02-26T13:03:22;9.30;;;5.88;;
85894;SDS011;76441;49.954;8.842;2024-02-26T13:05:48;10.88;;;6.32;;
85894;SDS011;76441;49.954;8.842;2024-02-26T13:08:18;11.13;;;5.47;;
85894;SDS011;76441;49.954;8.842;2024-02-26T13:10:47;8.23;;;5.18;;
85894;SDS011;76441;49.954;8.842;2024-02-26T13:13:17;9.98;;;5.65;;
85894;SDS011;76441;49.954;8.842;2024-02-26T13:15:43;9.23;;;5.72;;
85894;SDS011;76441;49.954;8.842;2024-02-26T13:18:12;9.45;;;5.93;;
85894;SDS011;76441;49.954;8.842;2024-02-26T13:20:38;9.10;;;5.40;;
85894;SDS011;76441;49.954;8.842;2024-02-26T13:23:07;8.45;;;6.22;;
85894;SDS011;76441;49.954;8.842;2024-02-26T13:25:35;9.60;;;5.80;;
85894;SDS011;76441;49.954;8.842;2024-02-26T13:28:19;8.43;;;5.57;;
85894;SDS011;76441;49.954;8.842;2024-02-26T13:30:54;8.68;;;4.90;;
85894;SDS011;76441;49.954;8.842;2024-02-26T13:33:28;7.75;;;4.82;;
85894;SDS011;76441;49.954;8.842;2024-02-26T13:35:54;8.70;;;5.38;;
85894;SDS011;76441;49.954;8.842;2024-02-26T13:38:21;7.55;;;4.93;;
85894;SDS011;76441;49.954;8.842;2024-02-26T13:40:46;5.80;;;4.57;;
85894;SDS011;76441;49.954;8.842;2024-02-26T13:43:11;6.77;;;4.43;;
85894;SDS011;76441;49.954;8.842;2024-02-26T13:45:37;7.60;;;4.60;;
85894;SDS011;76441;49.954;8.842;2024-02-26T13:48:04;8.88;;;5.38;;
85894;SDS011;76441;49.954;8.842;2024-02-26T13:52:56;6.53;;;4.78;;
85894;SDS011;76441;49.954;8.842;2024-02-26T13:55:23;8.82;;;4.60;;
85894;SDS011;76441;49.954;8.842;2024-02-26T13:57:53;7.20;;;4.70;;
85894;SDS011;76441;49.954;8.842;2024-02-26T14:00:19;9.48;;;4.70;;
85894;SDS011;76441;49.954;8.842;2024-02-26T14:02:45;10.07;;;4.95;;
85894;SDS011;76441;49.954;8.842;2024-02-26T14:05:10;7.68;;;4.68;;
85894;SDS011;76441;49.954;8.842;2024-02-26T14:07:36;11.07;;;4.60;;
85894;SDS011;76441;49.954;8.842;2024-02-26T14:10:01;6.65;;;4.35;;
85894;SDS011;76441;49.954;8.842;2024-02-26T14:12:26;11.20;;;6.18;;
85894;SDS011;76441;49.954;8.842;2024-02-26T14:14:53;10.20;;;4.90;;
85894;SDS011;76441;49.954;8.842;2024-02-26T14:17:20;7.43;;;4.45;;
85894;SDS011;76441;49.954;8.842;2024-02-26T14:19:45;7.63;;;4.17;;
85894;SDS011;76441;49.954;8.842;2024-02-26T14:22:13;8.93;;;4.70;;
85894;SDS011;76441;49.954;8.842;2024-02-26T14:27:10;7.03;;;4.38;;
85894;SDS011;76441;49.954;8.842;2024-02-26T14:29:39;6.18;;;4.38;;
85894;SDS011;76441;49.954;8.842;2024-02-26T14:32:06;8.85;;;4.57;;
85894;SDS011;76441;49.954;8.842;2024-02-26T14:34:32;17.92;;;8.63;;
85894;SDS011;76441;49.954;8.842;2024-02-26T14:36:57;9.50;;;4.90;;
85894;SDS011;76441;49.954;8.842;2024-02-26T14:39:23;6.05;;;3.47;;
85894;SDS011;76441;49.954;8.842;2024-02-26T14:41:48;6.15;;;3.95;;
85894;SDS011;76441;49.954;8.842;2024-02-26T14:44:13;7.33;;;3.63;;
85894;SDS011;76441;49.954;8.842;2024-02-26T14:46:39;5.32;;;3.90;;